createdAt,value
2022-09-26T00:01:06.810Z,11.17
2022-09-26T00:03:36.721Z,11.25
2022-09-26T00:06:05.923Z,11.22
2022-09-26T00:08:34.398Z,11.23
2022-09-26T00:11:05.535Z,11.19
2022-09-26T00:13:35.853Z,11.24
2022-09-26T00:16:04.193Z,11.16
2022-09-26T00:18:32.175Z,11.17
2022-09-26T00:21:05.901Z,11.19
2022-09-26T00:23:34.001Z,11.13
2022-09-26T00:26:01.908Z,11.22
2022-09-26T00:28:30.003Z,10.99
2022-09-26T00:30:58.294Z,11.05
2022-09-26T00:33:26.452Z,11.10
2022-09-26T00:35:56.041Z,11.11
2022-09-26T00:38:25.681Z,11.08
2022-09-26T00:40:54.138Z,11.10
2022-09-26T00:43:30.498Z,10.99
2022-09-26T00:46:01.920Z,10.86
2022-09-26T00:48:31.291Z,10.73
2022-09-26T00:51:00.758Z,10.75
2022-09-26T00:53:36.285Z,10.72
2022-09-26T00:56:10.034Z,10.79
2022-09-26T00:58:42.666Z,10.71
2022-09-26T01:01:11.360Z,10.78
2022-09-26T01:03:42.699Z,10.82
2022-09-26T01:06:10.727Z,10.92
2022-09-26T01:08:43.986Z,10.94
2022-09-26T01:11:17.236Z,10.86
2022-09-26T01:13:45.704Z,10.83
2022-09-26T01:16:13.774Z,10.90
2022-09-26T01:18:42.417Z,10.84
2022-09-26T01:21:31.772Z,10.83
2022-09-26T01:24:27.261Z,10.92
2022-09-26T01:27:15.139Z,10.74
2022-09-26T01:30:16.001Z,10.82
2022-09-26T01:33:16.534Z,10.92
2022-09-26T01:36:17.272Z,10.95
2022-09-26T01:38:53.902Z,10.94
2022-09-26T01:41:44.621Z,11.04
2022-09-26T01:44:22.605Z,11.06
2022-09-26T01:46:55.582Z,11.10
2022-09-26T01:49:29.002Z,10.97
2022-09-26T01:52:03.232Z,11.00
2022-09-26T01:54:38.600Z,11.01
2022-09-26T01:57:13.821Z,10.94
2022-09-26T01:59:46.938Z,11.03
2022-09-26T02:02:21.479Z,11.10
2022-09-26T02:04:55.969Z,11.01
2022-09-26T02:07:31.233Z,11.02
2022-09-26T02:10:04.263Z,11.00
2022-09-26T02:12:36.661Z,10.99
2022-09-26T02:15:09.300Z,10.87
2022-09-26T02:17:43.327Z,11.02
2022-09-26T02:20:16.730Z,11.04
2022-09-26T02:22:46.583Z,10.96
2022-09-26T02:25:16.608Z,10.91
2022-09-26T02:27:44.511Z,11.08
2022-09-26T02:30:13.496Z,10.98
2022-09-26T02:32:43.141Z,10.92
2022-09-26T02:35:31.143Z,10.89
2022-09-26T02:37:59.294Z,10.85
2022-09-26T02:40:36.665Z,10.84
2022-09-26T02:43:24.922Z,10.99
2022-09-26T02:46:05.780Z,11.01
2022-09-26T02:48:55.732Z,11.02
2022-09-26T02:51:40.785Z,10.99
2022-09-26T02:54:23.460Z,10.91
2022-09-26T02:57:08.697Z,10.80
2022-09-26T02:59:45.983Z,10.63
2022-09-26T03:02:17.930Z,10.53
2022-09-26T03:05:04.461Z,10.53
2022-09-26T03:07:38.472Z,10.45
2022-09-26T03:10:10.278Z,10.51
2022-09-26T03:12:40.378Z,10.64
2022-09-26T03:15:10.431Z,10.63
2022-09-26T03:17:41.153Z,10.67
2022-09-26T03:20:14.769Z,10.82
2022-09-26T03:22:44.523Z,10.87
2022-09-26T03:25:16.886Z,10.88
2022-09-26T03:27:52.835Z,10.85
2022-09-26T03:30:22.107Z,10.79
2022-09-26T03:33:09.847Z,10.75
2022-09-26T03:35:39.208Z,10.79
2022-09-26T03:38:13.590Z,10.74
2022-09-26T03:40:46.891Z,10.67
2022-09-26T03:43:34.359Z,10.77
2022-09-26T03:46:04.561Z,10.95
2022-09-26T03:48:32.878Z,11.03
2022-09-26T03:51:08.157Z,10.92
2022-09-26T03:53:37.409Z,10.98
2022-09-26T03:56:09.396Z,10.96
2022-09-26T03:58:37.861Z,10.91
2022-09-26T04:01:08.201Z,10.94
2022-09-26T04:03:37.573Z,10.90
2022-09-26T04:06:09.476Z,10.87
2022-09-26T04:08:40.328Z,10.86
2022-09-26T04:11:11.159Z,10.80
2022-09-26T04:13:51.361Z,10.77
2022-09-26T04:16:23.884Z,10.67
2022-09-26T04:18:58.381Z,10.73
2022-09-26T04:21:29.657Z,10.70
2022-09-26T04:23:59.222Z,10.74
2022-09-26T04:26:27.073Z,10.67
2022-09-26T04:28:57.141Z,10.65
2022-09-26T04:31:37.966Z,10.56
2022-09-26T04:34:11.931Z,10.55
2022-09-26T04:36:41.625Z,10.60
2022-09-26T04:39:09.766Z,10.55
2022-09-26T04:41:38.711Z,10.58
2022-09-26T04:44:06.502Z,10.40
2022-09-26T04:46:34.859Z,10.45
2022-09-26T04:49:03.064Z,10.58
2022-09-26T04:51:32.981Z,10.45
2022-09-26T04:54:02.175Z,10.21
2022-09-26T04:56:34.276Z,10.32
2022-09-26T04:59:02.264Z,10.31
2022-09-26T05:01:40.280Z,10.20
2022-09-26T05:04:13.404Z,10.15
2022-09-26T05:06:41.436Z,10.18
2022-09-26T05:09:17.370Z,10.22
2022-09-26T05:11:53.371Z,10.20
2022-09-26T05:14:21.261Z,10.19
2022-09-26T05:16:50.215Z,10.19
2022-09-26T05:19:19.071Z,10.28
2022-09-26T05:22:07.098Z,10.22
2022-09-26T05:24:53.647Z,10.28
2022-09-26T05:27:21.816Z,10.27
2022-09-26T05:29:49.736Z,10.23
2022-09-26T05:32:17.639Z,10.22
2022-09-26T05:34:46.502Z,10.33
2022-09-26T05:37:17.146Z,10.16
2022-09-26T05:40:03.995Z,10.06
2022-09-26T05:42:36.233Z,10.19
2022-09-26T05:45:09.342Z,10.05
2022-09-26T05:47:40.490Z,10.01
2022-09-26T05:50:10.863Z,10.01
2022-09-26T05:52:40.681Z,9.84
2022-09-26T05:55:12.978Z,9.91
2022-09-26T05:57:59.678Z,10.16
2022-09-26T06:00:41.826Z,10.14
2022-09-26T06:03:09.957Z,9.97
2022-09-26T06:05:48.164Z,10.03
2022-09-26T06:08:17.352Z,10.20
2022-09-26T06:11:14.433Z,10.25
2022-09-26T06:13:45.809Z,10.48
2022-09-26T06:16:18.248Z,10.82
2022-09-26T06:18:47.522Z,10.82
2022-09-26T06:21:18.055Z,10.80
2022-09-26T06:23:48.570Z,10.98
2022-09-26T06:26:22.098Z,11.11
2022-09-26T06:28:51.001Z,11.06
2022-09-26T06:31:21.989Z,10.83
2022-09-26T06:34:17.596Z,11.13
2022-09-26T06:36:55.217Z,11.05
2022-09-26T06:39:23.254Z,11.32
2022-09-26T06:41:53.352Z,11.18
2022-09-26T06:44:44.584Z,11.08
2022-09-26T06:47:31.081Z,11.56
2022-09-26T06:50:31.652Z,11.45
2022-09-26T06:53:10.445Z,11.64
2022-09-26T06:55:38.859Z,11.32
2022-09-26T06:58:08.149Z,11.18
2022-09-26T07:00:54.789Z,10.98
2022-09-26T07:03:45.617Z,10.96
2022-09-26T07:06:27.652Z,10.98
2022-09-26T07:09:03.058Z,10.92
2022-09-26T07:12:12.792Z,10.86
2022-09-26T07:14:37.577Z,10.84
2022-09-26T07:17:16.566Z,10.96
2022-09-26T07:19:52.325Z,10.89
2022-09-26T07:22:38.831Z,11.04
2022-09-26T07:25:07.857Z,11.03
2022-09-26T07:27:36.069Z,11.10
2022-09-26T07:30:07.933Z,11.14
2022-09-26T07:32:39.748Z,11.20
2022-09-26T07:35:44.373Z,11.18
2022-09-26T07:38:13.135Z,11.18
2022-09-26T07:40:43.269Z,11.07
2022-09-26T07:43:20.654Z,11.23
2022-09-26T07:46:12.967Z,11.18
2022-09-26T07:49:02.868Z,11.26
2022-09-26T07:51:49.824Z,11.27
2022-09-26T07:54:21.728Z,11.38
2022-09-26T07:57:12.595Z,11.38
2022-09-26T07:59:59.484Z,11.46
2022-09-26T08:02:50.860Z,11.61
2022-09-26T08:05:20.848Z,11.65
2022-09-26T08:07:50.237Z,11.73
2022-09-26T08:10:47.506Z,11.92
2022-09-26T08:13:45.519Z,12.16
2022-09-26T08:16:19.544Z,12.50
2022-09-26T08:18:55.712Z,12.43
2022-09-26T08:21:25.680Z,12.45
2022-09-26T08:23:57.120Z,12.35
2022-09-26T08:26:46.150Z,12.10
2022-09-26T08:29:27.415Z,12.09
2022-09-26T08:31:58.230Z,12.07
2022-09-26T08:34:27.698Z,11.81
2022-09-26T08:37:15.997Z,12.31
2022-09-26T08:40:03.836Z,12.52
2022-09-26T08:43:04.223Z,12.42
2022-09-26T08:46:07.356Z,12.39
2022-09-26T08:49:08.833Z,12.46
2022-09-26T08:51:41.620Z,12.74
2022-09-26T08:54:17.768Z,12.62
2022-09-26T08:56:48.808Z,12.78
2022-09-26T08:59:26.801Z,12.96
2022-09-26T09:01:59.470Z,13.09
2022-09-26T09:04:57.475Z,13.01
2022-09-26T09:07:27.737Z,13.05
2022-09-26T09:10:02.290Z,13.02
2022-09-26T09:12:57.373Z,13.53
2022-09-26T09:15:55.776Z,13.54
2022-09-26T09:18:40.385Z,12.99
2022-09-26T09:21:41.644Z,13.50
2022-09-26T09:24:52.711Z,13.54
2022-09-26T09:30:24.428Z,13.51
2022-09-26T09:33:15.845Z,13.36
2022-09-26T09:35:53.751Z,13.58
2022-09-26T09:38:46.970Z,14.00
2022-09-26T09:41:30.062Z,13.68
2022-09-26T09:44:02.215Z,13.45
2022-09-26T09:46:35.834Z,13.71
2022-09-26T09:49:20.070Z,13.90
2022-09-26T09:52:03.553Z,13.89
2022-09-26T09:54:47.447Z,14.09
2022-09-26T09:57:43.796Z,14.02
2022-09-26T10:00:16.834Z,14.49
2022-09-26T10:03:02.213Z,14.91
2022-09-26T10:05:41.668Z,14.75
2022-09-26T10:08:14.173Z,15.15
2022-09-26T10:11:14.135Z,15.44
2022-09-26T10:14:05.827Z,15.03
2022-09-26T10:17:19.528Z,14.83
2022-09-26T10:20:00.040Z,14.30
2022-09-26T10:22:35.193Z,13.87
2022-09-26T10:25:08.504Z,13.06
2022-09-26T10:27:42.302Z,12.59
2022-09-26T10:30:30.218Z,11.86
2022-09-26T10:33:05.306Z,11.87
2022-09-26T10:36:05.089Z,11.58
2022-09-26T10:38:54.918Z,11.73
2022-09-26T10:41:23.801Z,11.51
2022-09-26T10:43:55.486Z,11.67
2022-09-26T10:46:46.702Z,12.04
2022-09-26T10:49:39.918Z,12.28
2022-09-26T10:52:18.808Z,12.51
2022-09-26T10:54:57.243Z,12.72
2022-09-26T10:57:30.722Z,13.12
2022-09-26T11:00:03.470Z,12.96
2022-09-26T11:02:33.483Z,13.28
2022-09-26T11:05:24.285Z,13.38
2022-09-26T11:07:58.265Z,13.62
2022-09-26T11:10:48.840Z,13.87
2022-09-26T11:13:24.024Z,14.06
2022-09-26T11:16:02.261Z,14.40
2022-09-26T11:18:40.931Z,14.12
2022-09-26T11:21:28.185Z,14.23
2022-09-26T11:24:04.428Z,14.72
2022-09-26T11:26:38.831Z,14.80
2022-09-26T11:29:18.890Z,14.26
2022-09-26T11:32:05.625Z,14.62
2022-09-26T11:35:14.194Z,14.10
2022-09-26T11:37:59.043Z,14.23
2022-09-26T11:40:37.598Z,14.20
2022-09-26T11:43:28.465Z,14.40
2022-09-26T11:46:21.195Z,13.99
2022-09-26T11:49:23.321Z,14.60
2022-09-26T11:52:59.756Z,14.44
2022-09-26T11:55:37.195Z,14.85
2022-09-26T11:58:15.265Z,14.68
2022-09-26T12:00:55.868Z,14.87
2022-09-26T12:03:51.147Z,14.84
2022-09-26T12:06:33.444Z,14.66
2022-09-26T12:09:34.214Z,14.67
2022-09-26T12:12:12.475Z,15.10
2022-09-26T12:14:53.925Z,14.71
2022-09-26T12:17:35.427Z,14.75
2022-09-26T12:20:19.882Z,14.73
2022-09-26T12:22:53.495Z,14.78
2022-09-26T12:25:49.570Z,14.87
2022-09-26T12:28:30.732Z,15.07
2022-09-26T12:31:07.780Z,14.99
2022-09-26T12:33:53.378Z,14.47
2022-09-26T12:36:34.085Z,14.82
2022-09-26T12:39:16.650Z,14.36
2022-09-26T12:42:17.259Z,14.28
2022-09-26T12:45:05.378Z,14.25
2022-09-26T12:48:00.426Z,14.18
2022-09-26T12:50:39.671Z,14.17
2022-09-26T12:53:43.669Z,13.93
2022-09-26T12:56:22.240Z,14.28
2022-09-26T12:59:16.873Z,14.27
2022-09-26T13:02:22.750Z,14.53
2022-09-26T13:05:14.971Z,14.18
2022-09-26T13:07:54.626Z,13.96
2022-09-26T13:10:31.829Z,14.02
2022-09-26T13:13:24.785Z,14.43
2022-09-26T13:16:11.280Z,15.50
2022-09-26T13:18:43.434Z,15.82
2022-09-26T13:21:15.159Z,15.47
2022-09-26T13:23:53.590Z,15.61
2022-09-26T13:26:28.947Z,15.84
2022-09-26T13:29:17.322Z,15.43
2022-09-26T13:31:55.318Z,15.34
2022-09-26T13:34:31.304Z,15.20
2022-09-26T13:37:01.034Z,15.77
2022-09-26T13:39:35.284Z,16.00
2022-09-26T13:42:08.588Z,16.37
2022-09-26T13:44:55.609Z,16.16
2022-09-26T13:47:40.384Z,16.14
2022-09-26T13:50:23.416Z,16.42
2022-09-26T13:53:05.526Z,16.15
2022-09-26T13:55:34.448Z,16.07
2022-09-26T13:58:07.018Z,16.07
2022-09-26T14:00:54.578Z,16.38
2022-09-26T14:03:47.821Z,16.24
2022-09-26T14:06:36.818Z,15.86
2022-09-26T14:09:25.791Z,15.71
2022-09-26T14:12:50.766Z,16.12
2022-09-26T14:15:24.575Z,15.83
2022-09-26T14:18:17.036Z,16.00
2022-09-26T14:21:01.660Z,16.29
2022-09-26T14:23:42.728Z,16.07
2022-09-26T14:26:19.114Z,16.25
2022-09-26T14:28:56.553Z,15.82
2022-09-26T14:31:42.652Z,16.03
2022-09-26T14:34:21.274Z,16.17
2022-09-26T14:36:50.415Z,16.36
2022-09-26T14:39:33.328Z,16.59
2022-09-26T14:42:09.791Z,16.53
2022-09-26T14:44:40.606Z,16.64
2022-09-26T14:47:16.409Z,16.34
2022-09-26T14:49:53.053Z,16.07
2022-09-26T14:52:22.201Z,16.02
2022-09-26T14:54:50.556Z,15.85
2022-09-26T14:57:25.137Z,15.67
2022-09-26T14:59:54.902Z,15.96
2022-09-26T15:02:41.519Z,16.14
2022-09-26T15:05:23.344Z,16.34
2022-09-26T15:07:53.540Z,16.34
2022-09-26T15:10:29.160Z,16.23
2022-09-26T15:13:05.528Z,16.21
2022-09-26T15:15:44.080Z,16.01
2022-09-26T15:18:17.189Z,15.90
2022-09-26T15:20:53.194Z,15.72
2022-09-26T15:23:26.346Z,15.91
2022-09-26T15:25:56.396Z,16.12
2022-09-26T15:28:25.420Z,16.20
2022-09-26T15:31:24.457Z,16.11
2022-09-26T15:33:56.484Z,15.90
2022-09-26T15:36:24.481Z,15.63
2022-09-26T15:38:52.738Z,15.43
2022-09-26T15:41:35.040Z,15.51
2022-09-26T15:44:05.778Z,15.30
2022-09-26T15:46:35.228Z,15.45
2022-09-26T15:49:03.254Z,15.37
2022-09-26T15:51:39.038Z,15.78
2022-09-26T15:54:15.993Z,15.92
2022-09-26T15:56:49.830Z,15.76
2022-09-26T15:59:25.358Z,15.69
2022-09-26T16:01:55.353Z,16.00
2022-09-26T16:04:27.146Z,15.92
2022-09-26T16:06:59.453Z,16.14
2022-09-26T16:09:33.340Z,16.03
2022-09-26T16:12:04.105Z,15.74
2022-09-26T16:14:41.239Z,15.51
2022-09-26T16:17:22.964Z,15.26
2022-09-26T16:19:52.966Z,15.16
2022-09-26T16:22:45.452Z,15.09
2022-09-26T16:25:52.888Z,15.06
2022-09-26T16:28:44.830Z,14.76
2022-09-26T16:31:24.685Z,14.48
2022-09-26T16:33:56.865Z,14.32
2022-09-26T16:36:27.065Z,14.16
2022-09-26T16:38:57.401Z,13.88
2022-09-26T16:41:59.393Z,13.79
2022-09-26T16:44:28.823Z,13.74
2022-09-26T16:47:01.737Z,13.73
2022-09-26T16:49:50.613Z,13.55
2022-09-26T16:52:26.784Z,13.36
2022-09-26T16:54:55.929Z,13.35
2022-09-26T16:57:26.714Z,13.23
2022-09-26T17:00:15.674Z,12.98
2022-09-26T17:02:42.847Z,12.86
2022-09-26T17:05:18.644Z,12.83
2022-09-26T17:07:47.753Z,12.81
2022-09-26T17:10:16.653Z,12.70
2022-09-26T17:12:51.533Z,12.46
2022-09-26T17:15:25.318Z,12.33
2022-09-26T17:17:54.209Z,12.41
2022-09-26T17:20:24.489Z,12.44
2022-09-26T17:22:54.755Z,12.51
2022-09-26T17:25:24.929Z,12.46
2022-09-26T17:27:57.784Z,12.49
2022-09-26T17:30:25.832Z,12.53
2022-09-26T17:32:54.724Z,12.56
2022-09-26T17:35:29.501Z,12.47
2022-09-26T17:37:57.794Z,12.51
2022-09-26T17:40:27.695Z,12.60
2022-09-26T17:42:57.059Z,12.62
2022-09-26T17:45:29.025Z,12.56
2022-09-26T17:47:59.372Z,12.60
2022-09-26T17:50:31.225Z,12.63
2022-09-26T17:53:00.909Z,12.55
2022-09-26T17:55:29.954Z,12.56
2022-09-26T17:57:59.792Z,12.53
2022-09-26T18:00:40.349Z,12.52
2022-09-26T18:03:13.564Z,12.46
2022-09-26T18:05:46.584Z,12.41
2022-09-26T18:08:21.934Z,12.37
2022-09-26T18:10:52.607Z,12.38
2022-09-26T18:13:25.089Z,12.36
2022-09-26T18:15:53.433Z,12.47
2022-09-26T18:18:27.819Z,12.33
2022-09-26T18:20:58.838Z,12.38
2022-09-26T18:23:29.749Z,12.52
2022-09-26T18:26:00.052Z,12.57
2022-09-26T18:28:28.264Z,12.54
2022-09-26T18:31:00.369Z,12.51
2022-09-26T18:33:29.159Z,12.53
2022-09-26T18:35:59.411Z,12.52
2022-09-26T18:38:27.423Z,12.60
2022-09-26T18:40:59.442Z,12.59
2022-09-26T18:43:37.656Z,12.51
2022-09-26T18:46:09.987Z,12.50
2022-09-26T18:48:39.734Z,12.47
2022-09-26T18:51:09.457Z,12.39
2022-09-26T18:53:38.050Z,12.36
2022-09-26T18:56:23.637Z,12.24
2022-09-26T18:58:52.057Z,12.26
2022-09-26T19:01:27.493Z,12.22
2022-09-26T19:03:58.467Z,12.22
2022-09-26T19:06:31.750Z,12.14
2022-09-26T19:09:01.845Z,12.16
2022-09-26T19:11:32.582Z,12.12
2022-09-26T19:14:06.859Z,12.11
2022-09-26T19:16:34.992Z,12.15
2022-09-26T19:19:02.894Z,12.10
2022-09-26T19:21:36.214Z,12.21
2022-09-26T19:24:07.686Z,12.22
2022-09-26T19:26:41.211Z,12.23
2022-09-26T19:29:14.836Z,12.17
2022-09-26T19:31:43.909Z,12.14
2022-09-26T19:34:15.387Z,12.12
2022-09-26T19:36:44.845Z,12.02
2022-09-26T19:39:14.877Z,12.05
2022-09-26T19:41:43.021Z,12.08
2022-09-26T19:44:12.293Z,12.08
2022-09-26T19:46:41.498Z,12.00
2022-09-26T19:49:17.289Z,12.00
2022-09-26T19:51:47.652Z,11.96
2022-09-26T19:54:18.481Z,11.90
2022-09-26T19:56:47.599Z,11.86
2022-09-26T19:59:17.148Z,11.88
2022-09-26T20:01:47.010Z,11.83
2022-09-26T20:04:17.631Z,11.93
2022-09-26T20:06:47.341Z,11.84
2022-09-26T20:09:17.943Z,11.83
2022-09-26T20:11:46.448Z,11.75
2022-09-26T20:14:26.420Z,11.74
2022-09-26T20:16:57.520Z,11.68
2022-09-26T20:19:33.190Z,11.74
2022-09-26T20:22:04.051Z,11.69
2022-09-26T20:24:33.553Z,11.67
2022-09-26T20:27:04.014Z,11.69
2022-09-26T20:29:52.132Z,11.56
2022-09-26T20:32:20.148Z,11.55
2022-09-26T20:34:48.261Z,11.43
2022-09-26T20:37:19.793Z,11.39
2022-09-26T20:39:48.006Z,11.46
2022-09-26T20:42:18.645Z,11.43
2022-09-26T20:44:48.770Z,11.44
2022-09-26T20:47:21.083Z,11.57
2022-09-26T20:49:54.780Z,11.59
2022-09-26T20:52:26.629Z,11.67
2022-09-26T20:54:55.214Z,12.18
2022-09-26T20:57:23.670Z,12.63
2022-09-26T20:59:52.153Z,12.90
2022-09-26T21:02:28.884Z,13.17
2022-09-26T21:04:58.156Z,13.10
2022-09-26T21:07:27.793Z,12.94
2022-09-26T21:09:55.635Z,12.96
2022-09-26T21:12:23.551Z,13.27
2022-09-26T21:14:51.788Z,13.22
2022-09-26T21:17:27.994Z,13.02
2022-09-26T21:19:56.216Z,12.70
2022-09-26T21:22:45.223Z,12.58
2022-09-26T21:25:18.571Z,12.77
2022-09-26T21:27:46.873Z,12.75
2022-09-26T21:30:16.186Z,13.52
2022-09-26T21:32:46.307Z,14.06
2022-09-26T21:35:18.385Z,14.12
2022-09-26T21:37:50.228Z,14.08
2022-09-26T21:40:19.051Z,14.17
2022-09-26T21:42:51.776Z,14.20
2022-09-26T21:45:26.401Z,14.06
2022-09-26T21:47:55.728Z,14.31
2022-09-26T21:50:26.829Z,13.58
2022-09-26T21:53:01.706Z,13.30
2022-09-26T21:55:33.625Z,13.64
2022-09-26T21:58:05.987Z,13.89
2022-09-26T22:00:33.829Z,13.84
2022-09-26T22:03:02.176Z,13.50
2022-09-26T22:05:30.055Z,12.96
2022-09-26T22:07:59.344Z,12.32
2022-09-26T22:10:27.977Z,11.77
2022-09-26T22:12:56.653Z,11.46
2022-09-26T22:15:24.613Z,11.20
2022-09-26T22:17:52.463Z,11.06
2022-09-26T22:20:20.424Z,11.03
2022-09-26T22:22:48.342Z,10.98
2022-09-26T22:25:17.855Z,10.95
2022-09-26T22:27:45.829Z,11.01
2022-09-26T22:30:15.200Z,10.97
2022-09-26T22:32:43.077Z,10.93
2022-09-26T22:35:11.123Z,10.84
2022-09-26T22:37:39.830Z,10.88
2022-09-26T22:40:08.801Z,10.86
2022-09-26T22:42:38.005Z,10.84
2022-09-26T22:45:06.421Z,10.87
2022-09-26T22:47:34.283Z,10.98
2022-09-26T22:50:02.137Z,10.91
2022-09-26T22:52:30.124Z,10.85
2022-09-26T22:54:57.970Z,10.82
2022-09-26T22:57:26.225Z,10.81
2022-09-26T22:59:55.416Z,10.87
2022-09-26T23:02:23.341Z,10.85
2022-09-26T23:04:51.266Z,10.78
2022-09-26T23:07:20.162Z,10.79
2022-09-26T23:09:48.095Z,10.78
2022-09-26T23:12:16.123Z,10.86
2022-09-26T23:14:43.980Z,10.86
2022-09-26T23:17:13.817Z,10.85
2022-09-26T23:19:42.203Z,10.78
2022-09-26T23:22:10.143Z,10.79
2022-09-26T23:24:38.208Z,10.73
2022-09-26T23:27:06.160Z,10.56
2022-09-26T23:29:34.052Z,10.66
2022-09-26T23:32:02.386Z,10.69
2022-09-26T23:34:31.700Z,10.75
2022-09-26T23:36:59.572Z,10.75
2022-09-26T23:39:27.488Z,10.74
2022-09-26T23:41:55.884Z,10.74
2022-09-26T23:44:23.795Z,10.81
2022-09-26T23:46:51.708Z,10.92
2022-09-26T23:49:19.602Z,10.98
2022-09-26T23:51:48.970Z,11.01
2022-09-26T23:54:16.817Z,11.15
2022-09-26T23:56:44.719Z,11.18
2022-09-26T23:59:12.615Z,11.17
